createdAt,value
2022-11-29T00:00:05.721Z,562.07
2022-11-29T00:00:15.738Z,562.09
2022-11-29T00:00:25.739Z,562.09
2022-11-29T00:00:35.742Z,562.20
2022-11-29T00:00:45.740Z,562.17
2022-11-29T00:00:55.743Z,562.21
2022-11-29T00:01:05.742Z,562.19
2022-11-29T00:01:15.745Z,562.27
2022-11-29T00:01:25.744Z,562.28
2022-11-29T00:01:35.742Z,562.29
2022-11-29T00:01:45.785Z,562.28
2022-11-29T00:01:55.830Z,562.29
2022-11-29T00:02:05.903Z,562.29
2022-11-29T00:02:15.843Z,562.28
2022-11-29T00:02:25.860Z,562.29
2022-11-29T00:02:35.818Z,562.35
2022-11-29T00:02:45.859Z,562.38
2022-11-29T00:02:55.955Z,562.31
2022-11-29T00:03:05.881Z,562.34
2022-11-29T00:03:15.861Z,562.42
2022-11-29T00:03:25.782Z,562.43
2022-11-29T00:03:35.756Z,562.35
2022-11-29T00:03:45.745Z,562.39
2022-11-29T00:03:55.763Z,562.40
2022-11-29T00:04:05.755Z,562.44
2022-11-29T00:04:15.759Z,562.46
2022-11-29T00:04:25.766Z,562.47
2022-11-29T00:04:35.761Z,562.44
2022-11-29T00:04:45.957Z,562.49
2022-11-29T00:04:55.762Z,562.47
2022-11-29T00:05:05.765Z,562.51
2022-11-29T00:05:15.763Z,562.52
2022-11-29T00:05:25.767Z,562.46
2022-11-29T00:05:35.765Z,562.46
2022-11-29T00:05:45.767Z,562.50
2022-11-29T00:05:55.767Z,562.51
2022-11-29T00:06:05.769Z,562.53
2022-11-29T00:06:15.753Z,562.52
2022-11-29T00:06:25.769Z,562.51
2022-11-29T00:06:35.756Z,562.47
2022-11-29T00:06:45.755Z,562.51
2022-11-29T00:06:55.752Z,562.52
2022-11-29T00:07:05.772Z,562.54
2022-11-29T00:07:15.824Z,562.53
2022-11-29T00:07:25.810Z,562.52
2022-11-29T00:07:35.836Z,562.47
2022-11-29T00:07:45.851Z,562.48
2022-11-29T00:07:55.795Z,562.50
2022-11-29T00:08:05.766Z,562.49
2022-11-29T00:08:15.783Z,562.46
2022-11-29T00:08:25.813Z,562.56
2022-11-29T00:08:35.802Z,562.59
2022-11-29T00:08:45.797Z,562.50
2022-11-29T00:08:55.769Z,562.51
2022-11-29T00:09:05.783Z,562.56
2022-11-29T00:09:15.784Z,562.54
2022-11-29T00:09:25.785Z,562.48
2022-11-29T00:09:35.785Z,562.50
2022-11-29T00:09:45.790Z,562.55
2022-11-29T00:09:55.786Z,562.56
2022-11-29T00:10:05.787Z,562.55
2022-11-29T00:10:15.790Z,562.48
2022-11-29T00:10:25.778Z,562.46
2022-11-29T00:10:35.776Z,562.51
2022-11-29T00:10:45.799Z,562.50
2022-11-29T00:10:55.796Z,562.52
2022-11-29T00:11:05.797Z,562.52
2022-11-29T00:11:15.779Z,562.47
2022-11-29T00:11:25.782Z,562.46
2022-11-29T00:11:35.796Z,562.45
2022-11-29T00:11:45.798Z,562.50
2022-11-29T00:11:55.783Z,562.50
2022-11-29T00:12:05.803Z,562.43
2022-11-29T00:12:15.802Z,562.52
2022-11-29T00:12:25.805Z,562.46
2022-11-29T00:12:35.806Z,562.44
2022-11-29T00:12:45.803Z,562.44
2022-11-29T00:12:55.803Z,562.43
2022-11-29T00:13:05.808Z,562.41
2022-11-29T00:13:15.805Z,562.45
2022-11-29T00:13:25.807Z,562.43
2022-11-29T00:13:35.790Z,562.43
2022-11-29T00:13:45.815Z,562.38
2022-11-29T00:13:55.809Z,562.46
2022-11-29T00:14:05.794Z,562.45
2022-11-29T00:14:15.813Z,562.43
2022-11-29T00:14:25.813Z,562.38
2022-11-29T00:14:35.826Z,562.38
2022-11-29T00:14:46.212Z,562.37
2022-11-29T00:14:55.815Z,562.45
2022-11-29T00:15:05.816Z,562.45
2022-11-29T00:15:15.800Z,562.45
2022-11-29T00:15:25.815Z,562.39
2022-11-29T00:15:35.818Z,562.38
2022-11-29T00:15:45.820Z,562.37
2022-11-29T00:15:55.801Z,562.37
2022-11-29T00:16:05.802Z,562.37
2022-11-29T00:16:15.863Z,562.45
2022-11-29T00:16:25.853Z,562.47
2022-11-29T00:16:35.889Z,562.41
2022-11-29T00:16:45.883Z,562.43
2022-11-29T00:16:55.894Z,562.47
2022-11-29T00:17:05.883Z,562.49
2022-11-29T00:17:15.836Z,562.50
2022-11-29T00:17:25.829Z,562.46
2022-11-29T00:17:35.831Z,562.53
2022-11-29T00:17:45.826Z,562.56
2022-11-29T00:17:55.827Z,562.51
2022-11-29T00:18:05.829Z,562.56
2022-11-29T00:18:15.827Z,562.57
2022-11-29T00:18:25.827Z,562.58
2022-11-29T00:18:35.829Z,562.59
2022-11-29T00:18:45.836Z,562.66
2022-11-29T00:18:55.831Z,562.66
2022-11-29T00:19:05.831Z,562.67
2022-11-29T00:19:15.830Z,562.68
2022-11-29T00:19:25.834Z,562.75
2022-11-29T00:19:35.836Z,562.70
2022-11-29T00:19:45.832Z,562.72
2022-11-29T00:19:55.832Z,562.72
2022-11-29T00:20:05.833Z,562.75
2022-11-29T00:20:15.838Z,562.87
2022-11-29T00:20:25.838Z,562.89
2022-11-29T00:20:35.836Z,562.90
2022-11-29T00:20:45.838Z,562.88
2022-11-29T00:20:55.837Z,562.88
2022-11-29T00:21:05.839Z,562.96
2022-11-29T00:21:15.838Z,562.97
2022-11-29T00:21:25.840Z,562.94
2022-11-29T00:21:35.843Z,563.04
2022-11-29T00:21:45.840Z,563.06
2022-11-29T00:21:55.844Z,563.07
2022-11-29T00:22:05.846Z,563.06
2022-11-29T00:22:15.843Z,563.08
2022-11-29T00:22:25.846Z,563.07
2022-11-29T00:22:35.847Z,563.15
2022-11-29T00:22:45.844Z,563.16
2022-11-29T00:22:55.854Z,563.16
2022-11-29T00:23:05.847Z,563.18
2022-11-29T00:23:15.848Z,563.18
2022-11-29T00:23:25.850Z,563.21
2022-11-29T00:23:35.850Z,563.25
2022-11-29T00:23:45.853Z,563.27
2022-11-29T00:23:55.850Z,563.26
2022-11-29T00:24:05.833Z,563.26
2022-11-29T00:24:15.852Z,563.28
2022-11-29T00:24:25.856Z,563.33
2022-11-29T00:24:35.854Z,563.29
2022-11-29T00:24:46.153Z,563.29
2022-11-29T00:24:55.856Z,563.34
2022-11-29T00:25:05.858Z,563.37
2022-11-29T00:25:15.854Z,563.31
2022-11-29T00:25:25.839Z,563.31
2022-11-29T00:25:35.859Z,563.39
2022-11-29T00:25:45.857Z,563.41
2022-11-29T00:25:55.862Z,563.38
2022-11-29T00:26:05.862Z,563.38
2022-11-29T00:26:15.860Z,563.34
2022-11-29T00:26:25.867Z,563.39
2022-11-29T00:26:35.866Z,563.39
2022-11-29T00:26:45.863Z,563.36
2022-11-29T00:26:55.865Z,563.41
2022-11-29T00:27:05.947Z,563.40
2022-11-29T00:27:15.872Z,563.41
2022-11-29T00:27:25.868Z,563.34
2022-11-29T00:27:35.867Z,563.34
2022-11-29T00:27:45.870Z,563.37
2022-11-29T00:27:55.874Z,563.37
2022-11-29T00:28:05.875Z,563.40
2022-11-29T00:28:15.872Z,563.42
2022-11-29T00:28:25.856Z,563.41
2022-11-29T00:28:35.871Z,563.46
2022-11-29T00:28:45.877Z,563.42
2022-11-29T00:28:55.879Z,563.42
2022-11-29T00:29:05.879Z,563.44
2022-11-29T00:29:15.875Z,563.50
2022-11-29T00:29:25.875Z,563.50
2022-11-29T00:29:35.877Z,563.56
2022-11-29T00:29:45.878Z,563.54
2022-11-29T00:29:55.877Z,563.57
2022-11-29T00:30:05.887Z,563.61
2022-11-29T00:30:15.880Z,563.64
2022-11-29T00:30:25.935Z,563.58
2022-11-29T00:30:35.954Z,563.62
2022-11-29T00:30:45.947Z,563.68
2022-11-29T00:30:55.914Z,563.70
2022-11-29T00:31:05.927Z,563.75
2022-11-29T00:31:15.931Z,563.76
2022-11-29T00:31:25.886Z,563.78
2022-11-29T00:31:35.888Z,563.79
2022-11-29T00:31:45.888Z,563.80
2022-11-29T00:31:55.891Z,563.77
2022-11-29T00:32:05.893Z,563.85
2022-11-29T00:32:15.892Z,563.84
2022-11-29T00:32:25.890Z,563.84
2022-11-29T00:32:35.893Z,563.83
2022-11-29T00:32:45.911Z,563.88
2022-11-29T00:32:55.892Z,563.82
2022-11-29T00:33:05.899Z,563.88
2022-11-29T00:33:15.895Z,563.81
2022-11-29T00:33:25.895Z,563.84
2022-11-29T00:33:35.903Z,563.83
2022-11-29T00:33:45.909Z,563.82
2022-11-29T00:33:55.900Z,563.77
2022-11-29T00:34:05.902Z,563.83
2022-11-29T00:34:15.899Z,563.75
2022-11-29T00:34:25.902Z,563.72
2022-11-29T00:34:35.902Z,563.70
2022-11-29T00:34:46.155Z,563.73
2022-11-29T00:34:59.375Z,563.74
2022-11-29T00:35:09.652Z,563.74
2022-11-29T00:35:15.905Z,563.69
2022-11-29T00:35:25.904Z,563.66
2022-11-29T00:35:35.906Z,563.64
2022-11-29T00:35:45.905Z,563.68
2022-11-29T00:35:55.906Z,563.65
2022-11-29T00:36:05.905Z,563.62
2022-11-29T00:36:15.906Z,563.60
2022-11-29T00:36:25.905Z,563.59
2022-11-29T00:36:35.910Z,563.52
2022-11-29T00:36:45.908Z,563.52
2022-11-29T00:36:55.909Z,563.55
2022-11-29T00:37:05.912Z,563.55
2022-11-29T00:37:15.913Z,563.55
2022-11-29T00:37:25.912Z,563.51
2022-11-29T00:37:35.914Z,563.47
2022-11-29T00:37:45.916Z,563.45
2022-11-29T00:37:55.916Z,563.46
2022-11-29T00:38:05.899Z,563.39
2022-11-29T00:38:15.916Z,563.36
2022-11-29T00:38:25.918Z,563.31
2022-11-29T00:38:35.918Z,563.27
2022-11-29T00:38:45.931Z,563.34
2022-11-29T00:38:55.919Z,563.27
2022-11-29T00:39:05.919Z,563.24
2022-11-29T00:39:15.921Z,563.26
2022-11-29T00:39:25.923Z,563.27
2022-11-29T00:39:35.923Z,563.24
2022-11-29T00:39:45.923Z,563.17
2022-11-29T00:39:55.924Z,563.15
2022-11-29T00:40:05.926Z,563.21
2022-11-29T00:40:15.926Z,563.16
2022-11-29T00:40:25.928Z,563.15
2022-11-29T00:40:35.928Z,563.14
2022-11-29T00:40:45.929Z,563.18
2022-11-29T00:40:55.928Z,563.16
2022-11-29T00:41:05.927Z,563.10
2022-11-29T00:41:15.928Z,563.08
2022-11-29T00:41:25.930Z,563.14
2022-11-29T00:41:35.930Z,563.13
2022-11-29T00:41:45.930Z,563.10
2022-11-29T00:41:55.934Z,563.11
2022-11-29T00:42:05.934Z,563.08
2022-11-29T00:42:15.934Z,563.11
2022-11-29T00:42:25.936Z,563.11
2022-11-29T00:42:35.940Z,563.10
2022-11-29T00:42:45.938Z,563.17
2022-11-29T00:42:55.939Z,563.13
2022-11-29T00:43:05.938Z,563.14
2022-11-29T00:43:15.942Z,563.17
2022-11-29T00:43:25.940Z,563.14
2022-11-29T00:43:35.944Z,563.15
2022-11-29T00:43:45.985Z,563.19
2022-11-29T00:43:55.945Z,563.15
2022-11-29T00:44:05.946Z,563.22
2022-11-29T00:44:20.221Z,563.20
2022-11-29T00:44:25.956Z,563.19
2022-11-29T00:44:35.945Z,563.24
2022-11-29T00:44:46.134Z,563.27
2022-11-29T00:44:55.949Z,563.21
2022-11-29T00:45:05.945Z,563.25
2022-11-29T00:45:15.951Z,563.27
2022-11-29T00:45:25.950Z,563.27
2022-11-29T00:45:35.993Z,563.29
2022-11-29T00:45:45.981Z,563.25
2022-11-29T00:45:56.030Z,563.31
2022-11-29T00:46:06.039Z,563.31
2022-11-29T00:46:16.022Z,563.28
2022-11-29T00:46:26.003Z,563.35
2022-11-29T00:46:35.958Z,563.31
2022-11-29T00:46:45.958Z,563.39
2022-11-29T00:46:55.975Z,563.34
2022-11-29T00:47:05.943Z,563.39
2022-11-29T00:47:15.963Z,563.38
2022-11-29T00:47:25.961Z,563.39
2022-11-29T00:47:35.965Z,563.38
2022-11-29T00:47:45.950Z,563.39
2022-11-29T00:47:55.947Z,563.35
2022-11-29T00:48:05.966Z,563.42
2022-11-29T00:48:15.964Z,563.43
2022-11-29T00:48:25.965Z,563.43
2022-11-29T00:48:35.969Z,563.42
2022-11-29T00:48:45.968Z,563.41
2022-11-29T00:48:55.973Z,563.42
2022-11-29T00:49:05.968Z,563.35
2022-11-29T00:49:15.970Z,563.38
2022-11-29T00:49:25.972Z,563.46
2022-11-29T00:49:35.974Z,563.39
2022-11-29T00:49:45.974Z,563.42
2022-11-29T00:49:55.974Z,563.45
2022-11-29T00:50:05.975Z,563.38
2022-11-29T00:50:16.007Z,563.42
2022-11-29T00:50:25.977Z,563.45
2022-11-29T00:50:35.975Z,563.33
2022-11-29T00:50:45.975Z,563.44
2022-11-29T00:50:55.978Z,563.44
2022-11-29T00:51:05.978Z,563.34
2022-11-29T00:51:15.980Z,563.33
2022-11-29T00:51:25.981Z,563.36
2022-11-29T00:51:35.980Z,563.32
2022-11-29T00:51:45.964Z,563.31
2022-11-29T00:51:55.988Z,563.35
2022-11-29T00:52:05.967Z,563.31
2022-11-29T00:52:15.987Z,563.36
2022-11-29T00:52:25.971Z,563.35
2022-11-29T00:52:35.986Z,563.34
2022-11-29T00:52:45.988Z,563.28
2022-11-29T00:52:55.994Z,563.29
2022-11-29T00:53:05.992Z,563.32
2022-11-29T00:53:15.989Z,563.32
2022-11-29T00:53:25.997Z,563.30
2022-11-29T00:53:35.993Z,563.29
2022-11-29T00:53:45.996Z,563.33
2022-11-29T00:53:55.983Z,563.32
2022-11-29T00:54:05.998Z,563.31
2022-11-29T00:54:15.998Z,563.24
2022-11-29T00:54:26.002Z,563.23
2022-11-29T00:54:36.000Z,563.27
2022-11-29T00:54:46.177Z,563.28
2022-11-29T00:54:56.003Z,563.21
2022-11-29T00:55:06.004Z,563.22
2022-11-29T00:55:15.987Z,563.21
2022-11-29T00:55:26.009Z,563.25
2022-11-29T00:55:36.006Z,563.19
2022-11-29T00:55:46.006Z,563.18
2022-11-29T00:55:56.009Z,563.19
2022-11-29T00:56:06.010Z,563.19
2022-11-29T00:56:16.010Z,563.19
2022-11-29T00:56:26.015Z,563.17
2022-11-29T00:56:36.010Z,563.20
2022-11-29T00:56:46.010Z,563.21
2022-11-29T00:56:56.017Z,563.21
2022-11-29T00:57:05.997Z,563.17
2022-11-29T00:57:16.017Z,563.21
2022-11-29T00:57:26.019Z,563.20
2022-11-29T00:57:36.018Z,563.20
2022-11-29T00:57:46.002Z,563.19
2022-11-29T00:57:56.005Z,563.19
2022-11-29T00:58:06.023Z,563.12
2022-11-29T00:58:16.027Z,563.12
2022-11-29T00:58:26.030Z,563.18
2022-11-29T00:58:36.022Z,563.17
2022-11-29T00:58:46.028Z,563.17
2022-11-29T00:58:56.034Z,563.11
2022-11-29T00:59:06.025Z,563.13
2022-11-29T00:59:16.024Z,563.13
2022-11-29T00:59:26.025Z,563.14
2022-11-29T00:59:36.025Z,563.13
2022-11-29T00:59:46.027Z,563.10
2022-11-29T00:59:56.030Z,563.13
2022-11-29T01:00:06.033Z,563.10
2022-11-29T01:00:16.031Z,563.09
2022-11-29T01:00:26.031Z,563.08
2022-11-29T01:00:36.032Z,563.13
2022-11-29T01:00:46.031Z,563.08
2022-11-29T01:00:56.065Z,563.07
2022-11-29T01:01:06.123Z,563.15
2022-11-29T01:01:16.060Z,563.12
2022-11-29T01:01:26.089Z,563.10
2022-11-29T01:01:36.097Z,563.07
2022-11-29T01:01:46.103Z,563.16
2022-11-29T01:01:56.263Z,563.15
2022-11-29T01:02:06.058Z,563.07
2022-11-29T01:02:16.073Z,563.13
2022-11-29T01:02:26.071Z,563.13
2022-11-29T01:02:36.091Z,563.12
2022-11-29T01:02:46.087Z,563.15
2022-11-29T01:02:56.044Z,563.17
2022-11-29T01:03:06.044Z,563.18
2022-11-29T01:03:16.046Z,563.18
2022-11-29T01:03:26.045Z,563.19
2022-11-29T01:03:36.049Z,563.16
2022-11-29T01:03:46.050Z,563.20
2022-11-29T01:03:56.050Z,563.15
2022-11-29T01:04:06.033Z,563.19
2022-11-29T01:04:16.050Z,563.18
2022-11-29T01:04:26.053Z,563.19
2022-11-29T01:04:36.052Z,563.17
2022-11-29T01:04:46.330Z,563.17
2022-11-29T01:04:56.052Z,563.18
2022-11-29T01:05:06.054Z,563.20
2022-11-29T01:05:16.054Z,563.15
2022-11-29T01:05:26.039Z,563.18
2022-11-29T01:05:36.055Z,563.20
2022-11-29T01:05:46.040Z,563.21
2022-11-29T01:05:56.041Z,563.17
2022-11-29T01:06:06.060Z,563.16
2022-11-29T01:06:16.153Z,563.23
2022-11-29T01:06:26.062Z,563.24
2022-11-29T01:06:36.061Z,563.26
2022-11-29T01:06:46.063Z,563.25
2022-11-29T01:06:56.064Z,563.27
2022-11-29T01:07:06.067Z,563.23
2022-11-29T01:07:16.132Z,563.25
2022-11-29T01:07:26.100Z,563.25
2022-11-29T01:07:36.092Z,563.34
2022-11-29T01:07:46.131Z,563.34
2022-11-29T01:07:56.091Z,563.30
2022-11-29T01:08:06.070Z,563.33
2022-11-29T01:08:16.067Z,563.33
2022-11-29T01:08:26.069Z,563.41
2022-11-29T01:08:36.069Z,563.42
2022-11-29T01:08:46.072Z,563.41
2022-11-29T01:08:56.075Z,563.38
2022-11-29T01:09:06.072Z,563.40
2022-11-29T01:09:16.076Z,563.38
2022-11-29T01:09:26.071Z,563.42
2022-11-29T01:09:36.074Z,563.43
2022-11-29T01:09:46.059Z,563.41
2022-11-29T01:09:56.075Z,563.37
2022-11-29T01:10:06.073Z,563.38
2022-11-29T01:10:16.081Z,563.44
2022-11-29T01:10:26.080Z,563.39
2022-11-29T01:10:36.078Z,563.38
2022-11-29T01:10:46.081Z,563.43
2022-11-29T01:10:56.080Z,563.42
2022-11-29T01:11:06.086Z,563.36
2022-11-29T01:11:16.188Z,563.38
2022-11-29T01:11:26.069Z,563.37
2022-11-29T01:11:36.084Z,563.40
2022-11-29T01:11:46.087Z,563.38
2022-11-29T01:11:56.067Z,563.40
2022-11-29T01:12:06.070Z,563.33
2022-11-29T01:12:16.092Z,563.32
2022-11-29T01:12:26.089Z,563.29
2022-11-29T01:12:36.090Z,563.28
2022-11-29T01:12:46.094Z,563.27
2022-11-29T01:12:56.090Z,563.30
2022-11-29T01:13:06.094Z,563.27
2022-11-29T01:13:16.091Z,563.25
2022-11-29T01:13:26.093Z,563.28
2022-11-29T01:13:36.095Z,563.27
2022-11-29T01:13:46.094Z,563.18
2022-11-29T01:13:56.097Z,563.17
2022-11-29T01:14:06.077Z,563.17
2022-11-29T01:14:16.098Z,563.23
2022-11-29T01:14:26.094Z,563.22
2022-11-29T01:14:36.096Z,563.18
2022-11-29T01:14:46.378Z,563.16
2022-11-29T01:14:56.109Z,563.14
2022-11-29T01:15:06.100Z,563.14
2022-11-29T01:15:16.088Z,563.10
2022-11-29T01:15:26.100Z,563.06
2022-11-29T01:15:36.082Z,563.10
2022-11-29T01:15:46.105Z,563.08
2022-11-29T01:15:56.103Z,563.05
2022-11-29T01:16:06.103Z,563.08
2022-11-29T01:16:16.253Z,563.08
2022-11-29T01:16:26.140Z,563.08
2022-11-29T01:16:36.244Z,563.00
2022-11-29T01:16:46.151Z,563.02
2022-11-29T01:16:56.181Z,563.02
2022-11-29T01:17:06.129Z,563.00
2022-11-29T01:17:16.114Z,563.01
2022-11-29T01:17:26.111Z,563.04
2022-11-29T01:17:36.093Z,563.02
2022-11-29T01:17:46.140Z,562.95
2022-11-29T01:17:56.112Z,562.94
2022-11-29T01:18:06.113Z,563.02
2022-11-29T01:18:16.119Z,563.01
2022-11-29T01:18:26.116Z,563.02
2022-11-29T01:18:36.113Z,562.96
2022-11-29T01:18:46.115Z,562.95
2022-11-29T01:18:56.120Z,562.97
2022-11-29T01:19:06.118Z,562.96
2022-11-29T01:19:16.099Z,562.95
2022-11-29T01:19:26.120Z,563.03
2022-11-29T01:19:36.102Z,563.03
2022-11-29T01:19:50.630Z,563.04
2022-11-29T01:19:56.120Z,563.03
2022-11-29T01:20:06.127Z,563.02
2022-11-29T01:20:16.105Z,563.02
2022-11-29T01:20:26.125Z,562.93
2022-11-29T01:20:36.127Z,562.95
2022-11-29T01:20:46.142Z,563.01
2022-11-29T01:20:56.126Z,562.98
2022-11-29T01:21:06.129Z,563.02
2022-11-29T01:21:16.134Z,563.01
2022-11-29T01:21:26.134Z,563.00
2022-11-29T01:21:36.130Z,562.93
2022-11-29T01:21:46.127Z,562.92
2022-11-29T01:21:56.131Z,562.91
2022-11-29T01:22:06.130Z,562.90
2022-11-29T01:22:16.129Z,562.92
2022-11-29T01:22:26.132Z,562.93
2022-11-29T01:22:36.135Z,562.96
2022-11-29T01:22:46.139Z,562.96
2022-11-29T01:22:56.133Z,562.89
2022-11-29T01:23:06.135Z,562.89
2022-11-29T01:23:16.134Z,562.86
2022-11-29T01:23:26.136Z,562.91
2022-11-29T01:23:36.134Z,562.92
2022-11-29T01:23:46.136Z,562.86
2022-11-29T01:23:56.139Z,562.82
2022-11-29T01:24:06.142Z,562.86
2022-11-29T01:24:16.137Z,562.87
2022-11-29T01:24:26.140Z,562.85
2022-11-29T01:24:36.141Z,562.78
2022-11-29T01:24:46.431Z,562.81
2022-11-29T01:24:56.144Z,562.80
2022-11-29T01:25:06.142Z,562.84
2022-11-29T01:25:16.145Z,562.83
2022-11-29T01:25:26.147Z,562.81
2022-11-29T01:25:36.149Z,562.77
2022-11-29T01:25:46.149Z,562.75
2022-11-29T01:25:56.148Z,562.79
2022-11-29T01:26:06.148Z,562.76
2022-11-29T01:26:16.149Z,562.74
2022-11-29T01:26:26.150Z,562.73
2022-11-29T01:26:36.149Z,562.70
2022-11-29T01:26:46.153Z,562.71
2022-11-29T01:26:56.155Z,562.70
2022-11-29T01:27:06.154Z,562.76
2022-11-29T01:27:16.139Z,562.75
2022-11-29T01:27:26.158Z,562.75
2022-11-29T01:27:36.158Z,562.78
2022-11-29T01:27:46.156Z,562.77
2022-11-29T01:27:56.158Z,562.71
2022-11-29T01:28:06.159Z,562.72
2022-11-29T01:28:16.143Z,562.72
2022-11-29T01:28:26.163Z,562.75
2022-11-29T01:28:36.164Z,562.74
2022-11-29T01:28:46.164Z,562.72
2022-11-29T01:28:56.161Z,562.77
2022-11-29T01:29:06.147Z,562.75
2022-11-29T01:29:16.166Z,562.73
2022-11-29T01:29:26.166Z,562.74
2022-11-29T01:29:36.164Z,562.64
2022-11-29T01:29:46.165Z,562.64
2022-11-29T01:29:56.167Z,562.69
2022-11-29T01:30:06.166Z,562.64
2022-11-29T01:30:16.172Z,562.65
2022-11-29T01:30:26.256Z,562.62
2022-11-29T01:30:36.205Z,562.65
2022-11-29T01:30:46.197Z,562.61
2022-11-29T01:30:56.217Z,562.64
2022-11-29T01:31:06.193Z,562.62
2022-11-29T01:31:16.210Z,562.63
2022-11-29T01:31:26.179Z,562.58
2022-11-29T01:31:36.174Z,562.58
2022-11-29T01:31:46.180Z,562.60
2022-11-29T01:31:56.176Z,562.53
2022-11-29T01:32:06.175Z,562.53
2022-11-29T01:32:16.166Z,562.58
2022-11-29T01:32:26.180Z,562.55
2022-11-29T01:32:36.180Z,562.54
2022-11-29T01:32:46.178Z,562.51
2022-11-29T01:32:56.180Z,562.55
2022-11-29T01:33:06.184Z,562.52
2022-11-29T01:33:16.180Z,562.48
2022-11-29T01:33:26.180Z,562.45
2022-11-29T01:33:36.187Z,562.45
2022-11-29T01:33:46.180Z,562.42
2022-11-29T01:33:56.191Z,562.41
2022-11-29T01:34:06.182Z,562.48
2022-11-29T01:34:16.189Z,562.44
2022-11-29T01:34:26.185Z,562.47
2022-11-29T01:34:36.191Z,562.46
2022-11-29T01:34:46.501Z,562.44
2022-11-29T01:34:56.186Z,562.37
2022-11-29T01:35:06.193Z,562.36
2022-11-29T01:35:16.191Z,562.39
2022-11-29T01:35:26.196Z,562.38
2022-11-29T01:35:36.195Z,562.38
2022-11-29T01:35:46.193Z,562.40
2022-11-29T01:35:56.196Z,562.41
2022-11-29T01:36:06.200Z,562.39
2022-11-29T01:36:16.200Z,562.32
2022-11-29T01:36:26.198Z,562.33
2022-11-29T01:36:36.197Z,562.39
2022-11-29T01:36:46.205Z,562.40
2022-11-29T01:36:56.201Z,562.38
2022-11-29T01:37:06.207Z,562.34
2022-11-29T01:37:16.184Z,562.36
2022-11-29T01:37:26.206Z,562.36
2022-11-29T01:37:36.211Z,562.35
2022-11-29T01:37:46.207Z,562.36
2022-11-29T01:37:56.207Z,562.33
2022-11-29T01:38:06.206Z,562.30
2022-11-29T01:38:16.207Z,562.31
2022-11-29T01:38:26.189Z,562.35
2022-11-29T01:38:36.206Z,562.34
2022-11-29T01:38:46.213Z,562.33
2022-11-29T01:38:56.203Z,562.30
2022-11-29T01:39:06.208Z,562.31
2022-11-29T01:39:16.208Z,562.31
2022-11-29T01:39:26.209Z,562.32
2022-11-29T01:39:36.209Z,562.30
2022-11-29T01:39:46.212Z,562.27
2022-11-29T01:39:56.210Z,562.28
2022-11-29T01:40:06.210Z,562.24
2022-11-29T01:40:16.211Z,562.23
2022-11-29T01:40:26.195Z,562.23
2022-11-29T01:40:36.214Z,562.17
2022-11-29T01:40:46.219Z,562.20
2022-11-29T01:40:56.221Z,562.15
2022-11-29T01:41:06.218Z,562.20
2022-11-29T01:41:16.218Z,562.17
2022-11-29T01:41:26.238Z,562.10
2022-11-29T01:41:36.220Z,562.12
2022-11-29T01:41:46.223Z,562.13
2022-11-29T01:41:56.225Z,562.15
2022-11-29T01:42:06.221Z,562.13
2022-11-29T01:42:16.236Z,562.10
2022-11-29T01:42:26.228Z,562.03
2022-11-29T01:42:36.223Z,562.07
2022-11-29T01:42:46.226Z,562.06
2022-11-29T01:42:56.229Z,561.99
2022-11-29T01:43:06.226Z,562.04
2022-11-29T01:43:16.226Z,562.05
2022-11-29T01:43:26.228Z,562.03
2022-11-29T01:43:36.230Z,562.05
2022-11-29T01:43:46.230Z,561.97
2022-11-29T01:43:56.270Z,561.99
2022-11-29T01:44:06.237Z,562.02
2022-11-29T01:44:16.232Z,561.99
2022-11-29T01:44:26.234Z,561.99
2022-11-29T01:44:36.231Z,562.00
2022-11-29T01:44:46.623Z,561.99
2022-11-29T01:44:56.236Z,561.92
2022-11-29T01:45:06.244Z,561.88
2022-11-29T01:45:16.234Z,561.91
2022-11-29T01:45:26.235Z,561.92
2022-11-29T01:45:36.235Z,561.91
2022-11-29T01:45:46.335Z,561.88
2022-11-29T01:45:56.285Z,561.85
2022-11-29T01:46:06.269Z,561.85
2022-11-29T01:46:16.312Z,561.87
2022-11-29T01:46:26.269Z,561.86
2022-11-29T01:46:36.243Z,561.86
2022-11-29T01:46:46.250Z,561.84
2022-11-29T01:46:56.245Z,561.77
2022-11-29T01:47:06.245Z,561.83
2022-11-29T01:47:16.245Z,561.81
2022-11-29T01:47:26.250Z,561.77
2022-11-29T01:47:36.246Z,561.77
2022-11-29T01:47:46.245Z,561.78
2022-11-29T01:47:56.247Z,561.73
2022-11-29T01:48:06.249Z,561.74
2022-11-29T01:48:16.252Z,561.77
2022-11-29T01:48:26.234Z,561.77
2022-11-29T01:48:36.252Z,561.79
2022-11-29T01:48:46.251Z,561.77
2022-11-29T01:48:56.256Z,561.78
2022-11-29T01:49:06.239Z,561.73
2022-11-29T01:49:16.258Z,561.70
2022-11-29T01:49:26.256Z,561.70
2022-11-29T01:49:36.258Z,561.74
2022-11-29T01:49:46.258Z,561.76
2022-11-29T01:49:56.248Z,561.77
2022-11-29T01:50:06.258Z,561.75
2022-11-29T01:50:16.292Z,561.74
2022-11-29T01:50:26.259Z,561.71
2022-11-29T01:50:36.261Z,561.70
2022-11-29T01:50:46.262Z,561.76
2022-11-29T01:50:56.267Z,561.79
2022-11-29T01:51:06.264Z,561.80
2022-11-29T01:51:16.264Z,561.83
2022-11-29T01:51:26.269Z,561.81
2022-11-29T01:51:36.249Z,561.77
2022-11-29T01:51:46.264Z,561.85
2022-11-29T01:51:56.267Z,561.86
2022-11-29T01:52:06.267Z,561.79
2022-11-29T01:52:16.268Z,561.84
2022-11-29T01:52:26.271Z,561.88
2022-11-29T01:52:36.251Z,561.91
2022-11-29T01:52:46.299Z,561.91
2022-11-29T01:52:56.270Z,561.89
2022-11-29T01:53:06.273Z,561.95
2022-11-29T01:53:16.271Z,561.93
2022-11-29T01:53:26.271Z,561.94
2022-11-29T01:53:36.274Z,561.96
2022-11-29T01:53:46.274Z,561.99
2022-11-29T01:53:56.273Z,561.94
2022-11-29T01:54:06.277Z,561.93
2022-11-29T01:54:16.275Z,561.95
2022-11-29T01:54:26.275Z,561.96
2022-11-29T01:54:36.276Z,562.02
2022-11-29T01:54:46.543Z,562.01
2022-11-29T01:54:56.279Z,562.02
2022-11-29T01:55:06.284Z,562.07
2022-11-29T01:55:16.280Z,562.02
2022-11-29T01:55:26.281Z,562.00
2022-11-29T01:55:36.337Z,562.03
2022-11-29T01:55:46.355Z,562.06
2022-11-29T01:55:56.309Z,562.06
2022-11-29T01:56:06.335Z,562.07
2022-11-29T01:56:16.398Z,562.10
2022-11-29T01:56:26.286Z,562.07
2022-11-29T01:56:36.273Z,562.07
2022-11-29T01:56:46.287Z,562.09
2022-11-29T01:56:56.272Z,562.02
2022-11-29T01:57:06.299Z,562.01
2022-11-29T01:57:16.273Z,562.01
2022-11-29T01:57:26.292Z,561.99
2022-11-29T01:57:36.293Z,562.05
2022-11-29T01:57:46.296Z,561.99
2022-11-29T01:57:56.277Z,562.05
2022-11-29T01:58:06.293Z,562.03
2022-11-29T01:58:16.282Z,562.02
2022-11-29T01:58:26.297Z,562.02
2022-11-29T01:58:36.277Z,561.93
2022-11-29T01:58:46.297Z,561.95
2022-11-29T01:58:56.297Z,562.00
2022-11-29T01:59:06.304Z,561.95
2022-11-29T01:59:16.288Z,561.95
2022-11-29T01:59:26.302Z,561.94
2022-11-29T01:59:36.303Z,561.96
2022-11-29T01:59:46.304Z,561.95
2022-11-29T01:59:56.306Z,561.89
2022-11-29T02:00:06.289Z,561.96
2022-11-29T02:00:16.310Z,561.95
2022-11-29T02:00:26.306Z,561.97
2022-11-29T02:00:36.307Z,561.98
2022-11-29T02:00:46.312Z,561.92
2022-11-29T02:00:56.321Z,561.92
2022-11-29T02:01:06.410Z,561.98
2022-11-29T02:01:16.344Z,561.98
2022-11-29T02:01:26.372Z,562.02
2022-11-29T02:01:36.368Z,562.01
2022-11-29T02:01:46.367Z,562.01
2022-11-29T02:01:56.318Z,561.97
2022-11-29T02:02:06.369Z,561.96
2022-11-29T02:02:16.402Z,561.96
2022-11-29T02:02:26.385Z,561.98
2022-11-29T02:02:36.360Z,562.01
2022-11-29T02:02:46.376Z,562.03
2022-11-29T02:02:56.350Z,562.05
2022-11-29T02:03:06.318Z,562.00
2022-11-29T02:03:16.323Z,562.03
2022-11-29T02:03:26.304Z,562.01
2022-11-29T02:03:36.321Z,562.09
2022-11-29T02:03:46.321Z,562.09
2022-11-29T02:03:56.324Z,562.09
2022-11-29T02:04:06.325Z,562.11
2022-11-29T02:04:16.328Z,562.14
2022-11-29T02:04:26.328Z,562.08
2022-11-29T02:04:36.324Z,562.08
2022-11-29T02:04:46.605Z,562.10